Time;durP1;ratioP1;P1;durP2;ratioP2;P2;SDS_P1;SDS_P2;PMS_P1;PMS_P2;Temp;Humidity;BMP_temperature;BMP_pressure;BME280_temperature;BME280_humidity;BME280_pressure;Samples;Min_cycle;Max_cycle;Signal;HPM_P1;HPM_P2
2022/04/06 00:00:19;;;;;;;7.78;4.25;;;;;;;8.48;90.18;99074.22;5104113;28;20145;-79
2022/04/06 00:02:46;;;;;;;9.20;4.03;;;;;;;8.46;90.49;99069.06;5104389;28;20055;-79
2022/04/06 00:05:11;;;;;;;10.80;3.55;;;;;;;8.58;90.20;99075.34;5097379;28;20028;-80
2022/04/06 00:07:38;;;;;;;10.07;3.25;;;;;;;8.58;89.58;99069.97;5104537;28;20059;-79
2022/04/06 00:10:05;;;;;;;11.10;3.95;;;;;;;8.57;89.58;99054.09;5103668;28;20035;-79
2022/04/06 00:12:31;;;;;;;14.35;4.10;;;;;;;8.47;89.61;99065.34;5098004;28;20038;-81
2022/04/06 00:14:56;;;;;;;8.70;3.65;;;;;;;8.58;89.84;99047.69;5095664;28;20032;-80
2022/04/06 00:17:22;;;;;;;9.30;4.13;;;;;;;8.57;89.28;99057.59;5095501;28;20032;-80
2022/04/06 00:19:47;;;;;;;13.27;3.78;;;;;;;8.52;89.17;99065.50;5095061;28;20056;-80
2022/04/06 00:22:13;;;;;;;11.33;4.30;;;;;;;8.62;88.76;99049.66;5094616;28;20466;-80
2022/04/06 00:24:38;;;;;;;9.88;3.67;;;;;;;8.61;88.67;99048.03;5094646;28;20028;-79
2022/04/06 00:27:04;;;;;;;12.77;4.15;;;;;;;8.61;88.31;99045.34;5093811;28;20058;-79
2022/04/06 00:29:30;;;;;;;13.32;4.15;;;;;;;8.55;88.73;99046.25;5093997;28;20048;-80
2022/04/06 00:31:55;;;;;;;8.80;3.35;;;;;;;8.60;88.73;99048.25;5093693;28;20085;-79
2022/04/06 00:35:28;;;;;;;12.32;3.83;;;;;;;8.51;88.87;99042.38;5093600;28;20031;-79
2022/04/06 00:37:06;;;;;;;11.30;3.10;;;;;;;8.45;89.14;99037.91;5093283;28;20123;-79
2022/04/06 00:39:31;;;;;;;10.23;3.90;;;;;;;8.42;89.24;99035.66;5094436;28;20066;-79
2022/04/06 00:41:56;;;;;;;8.37;3.70;;;;;;;8.40;88.88;99040.47;5094126;28;20040;-79
2022/04/06 00:44:22;;;;;;;6.45;2.75;;;;;;;8.50;88.98;99043.41;5093765;28;20036;-79
2022/04/06 00:46:47;;;;;;;9.00;3.33;;;;;;;8.53;88.32;99042.97;5093737;28;20028;-80
2022/04/06 00:49:14;;;;;;;12.77;3.27;;;;;;;8.52;88.62;99037.84;5094125;28;20042;-80
2022/04/06 00:51:46;;;;;;;9.55;3.50;;;;;;;8.51;88.45;99031.63;5075918;28;20117;-79
2022/04/06 00:54:16;;;;;;;10.50;3.80;;;;;;;8.55;87.79;99030.16;5094167;28;20056;-80
2022/04/06 00:56:43;;;;;;;9.43;3.63;;;;;;;8.55;87.95;99038.22;5094021;28;20497;-80
2022/04/06 00:59:09;;;;;;;11.40;3.28;;;;;;;8.41;88.10;99028.69;5093926;28;20024;-80
2022/04/06 01:01:35;;;;;;;9.35;3.67;;;;;;;8.50;87.76;99029.19;5094018;28;20031;-79
2022/04/06 01:04:00;;;;;;;7.80;3.20;;;;;;;8.54;87.72;99019.63;5093234;28;20530;-80
2022/04/06 01:06:26;;;;;;;12.23;3.17;;;;;;;8.56;87.29;99023.75;5095588;28;20111;-79
2022/04/06 01:08:52;;;;;;;10.23;3.42;;;;;;;8.52;86.82;99025.22;5097360;28;20369;-79
2022/04/06 01:11:20;;;;;;;11.30;2.88;;;;;;;8.53;87.01;99021.50;5097525;28;20032;-80
2022/04/06 01:13:46;;;;;;;5.63;2.67;;;;;;;8.53;86.94;99012.63;5079400;28;20067;-79
2022/04/06 01:16:12;;;;;;;10.93;3.58;;;;;;;8.54;86.38;99022.31;5079518;28;20111;-80
2022/04/06 01:18:37;;;;;;;9.00;3.38;;;;;;;8.50;86.94;99016.56;5079324;28;20038;-80
2022/04/06 01:21:03;;;;;;;12.98;4.20;;;;;;;8.49;86.61;99014.13;5097318;28;20043;-78
2022/04/06 01:23:30;;;;;;;;;;;;;;;8.53;86.76;99018.81;5079872;28;20032;-79
2022/04/06 01:25:55;;;;;;;7.22;3.25;;;;;;;8.53;86.60;99012.63;5096912;28;19927;-80
2022/04/06 01:28:21;;;;;;;10.20;2.70;;;;;;;8.46;86.60;99012.69;5097808;28;20062;-80
2022/04/06 01:30:46;;;;;;;10.32;3.60;;;;;;;8.45;86.48;99011.06;5096983;28;20063;-79
2022/04/06 01:33:11;;;;;;;7.80;2.92;;;;;;;8.38;87.09;99015.69;5096963;28;20386;-80
2022/04/06 01:35:42;;;;;;;9.68;3.20;;;;;;;8.42;86.78;99000.75;5097304;28;20390;-79
2022/04/06 01:38:08;;;;;;;8.98;2.50;;;;;;;8.37;87.03;99005.19;5096995;28;20024;-80
2022/04/06 01:40:33;;;;;;;9.43;3.17;;;;;;;8.41;86.85;99003.72;5097243;28;20040;-79
2022/04/06 01:42:59;;;;;;;12.15;3.35;;;;;;;8.46;86.27;99001.97;5099471;28;20520;-78
2022/04/06 01:45:25;;;;;;;10.20;3.50;;;;;;;8.40;87.08;99000.19;5088622;28;20025;-81
2022/04/06 01:47:50;;;;;;;9.10;2.78;;;;;;;8.43;86.79;99002.41;5104642;28;20038;-78
2022/04/06 01:53:02;;;;;;;8.95;3.35;;;;;;;8.32;86.74;99000.50;5107711;28;20035;-80
2022/04/06 01:55:28;;;;;;;10.43;3.30;;;;;;;8.40;86.47;98994.84;5108498;28;20085;-79
2022/04/06 01:57:53;;;;;;;8.43;2.97;;;;;;;8.29;87.13;98998.22;5107706;28;20024;-80
2022/04/06 02:00:19;;;;;;;10.30;3.92;;;;;;;8.39;86.70;98987.81;5103093;28;20064;-77
2022/04/06 02:02:48;;;;;;;6.35;2.58;;;;;;;8.42;86.19;98997.28;5100130;28;20528;-80
2022/04/06 02:05:15;;;;;;;7.05;2.75;;;;;;;8.41;86.18;98991.09;5106121;28;20036;-79
2022/04/06 02:07:42;;;;;;;10.70;3.08;;;;;;;8.39;86.35;98987.00;5106370;28;20051;-79
2022/04/06 02:10:08;;;;;;;9.77;2.83;;;;;;;8.36;86.18;98985.59;5088031;28;20024;-79
2022/04/06 02:12:34;;;;;;;11.93;3.30;;;;;;;8.38;85.98;98983.50;5100016;28;20032;-80
2022/04/06 02:15:00;;;;;;;6.80;2.85;;;;;;;8.40;86.01;98985.97;5097998;28;20086;-78
2022/04/06 02:17:28;;;;;;;5.75;2.50;;;;;;;8.41;85.75;98984.91;5095831;28;20032;-77
2022/04/06 02:19:53;;;;;;;7.53;2.50;;;;;;;8.35;85.85;98979.41;5095840;28;20020;-79
2022/04/06 02:22:19;;;;;;;9.15;3.17;;;;;;;8.33;85.97;98981.47;5095310;28;20076;-77
2022/04/06 02:24:45;;;;;;;5.72;2.40;;;;;;;8.45;85.57;98978.84;5095419;28;20516;-78
2022/04/06 02:27:10;;;;;;;5.03;1.90;;;;;;;8.37;85.59;98981.84;5095434;28;20032;-78
2022/04/06 02:29:37;;;;;;;7.03;2.95;;;;;;;8.34;85.90;98985.00;5095157;28;20051;-77
2022/04/06 02:32:04;;;;;;;6.13;2.05;;;;;;;8.41;85.30;98972.31;5094702;28;20474;-77
2022/04/06 02:34:29;;;;;;;9.60;2.13;;;;;;;8.38;85.87;98977.31;5094890;28;20031;-77
2022/04/06 02:36:55;;;;;;;4.75;2.10;;;;;;;8.45;84.89;98967.28;5095922;28;20024;-79
2022/04/06 02:39:20;;;;;;;5.53;2.15;;;;;;;8.44;84.81;98979.88;5094926;28;20039;-79
2022/04/06 02:41:46;;;;;;;7.38;2.38;;;;;;;8.44;85.17;98976.38;5094743;28;20036;-78
2022/04/06 02:44:11;;;;;;;8.50;2.55;;;;;;;8.40;85.04;98977.91;5095116;28;20070;-80
2022/04/06 02:46:36;;;;;;;9.30;1.70;;;;;;;8.46;84.49;98964.38;5094788;28;20020;-77
2022/04/06 02:49:02;;;;;;;7.00;2.30;;;;;;;8.43;84.65;98967.50;5095107;28;20613;-78
2022/04/06 02:51:27;;;;;;;9.38;2.28;;;;;;;8.43;84.38;98964.81;5095125;28;20417;-78
2022/04/06 02:53:53;;;;;;;6.10;2.00;;;;;;;8.44;84.41;98954.91;5095714;28;20070;-78
2022/04/06 02:56:18;;;;;;;10.93;2.28;;;;;;;8.42;84.33;98962.41;5095895;28;20047;-77
2022/04/06 02:58:43;;;;;;;4.85;1.85;;;;;;;8.32;84.22;98957.56;5094523;28;20374;-77
2022/04/06 03:01:09;;;;;;;7.65;1.92;;;;;;;8.29;84.59;98947.22;5094154;28;20035;-77
2022/04/06 03:03:34;;;;;;;5.47;2.03;;;;;;;8.29;84.77;98950.75;5094172;28;20039;-77
2022/04/06 03:06:01;;;;;;;4.90;1.57;;;;;;;8.40;83.90;98962.63;5094464;28;20032;-77
2022/04/06 03:08:27;;;;;;;7.05;2.63;;;;;;;8.38;83.71;98953.97;5075940;28;20266;-77
2022/04/06 03:10:52;;;;;;;4.47;1.52;;;;;;;8.46;83.33;98956.31;5094167;28;20479;-77
2022/04/06 03:13:17;;;;;;;4.33;1.60;;;;;;;8.38;83.39;98953.97;5093913;28;20386;-77
2022/04/06 03:15:43;;;;;;;3.17;1.50;;;;;;;8.39;83.38;98952.13;5093885;28;20250;-77
2022/04/06 03:18:08;;;;;;;6.93;1.95;;;;;;;8.36;83.32;98956.06;5093721;28;20039;-77
2022/04/06 03:20:34;;;;;;;5.82;1.73;;;;;;;8.41;83.63;98958.91;5094047;28;20036;-77
2022/04/06 03:22:59;;;;;;;7.10;2.65;;;;;;;8.41;83.29;98950.03;5094036;28;20046;-77
2022/04/06 03:25:24;;;;;;;4.80;1.83;;;;;;;8.34;83.45;98958.97;5093653;28;20028;-77
2022/04/06 03:27:50;;;;;;;4.43;1.60;;;;;;;8.29;83.44;98952.59;5075673;28;20032;-78
2022/04/06 03:30:15;;;;;;;4.75;2.03;;;;;;;8.31;83.33;98945.97;5075788;28;20374;-77
2022/04/06 03:32:41;;;;;;;5.90;2.27;;;;;;;8.35;83.07;98949.06;5076107;28;20024;-78
2022/04/06 03:35:07;;;;;;;5.35;2.53;;;;;;;8.34;83.36;98950.09;5098224;28;20027;-78
2022/04/06 03:37:33;;;;;;;;;;;;;;;8.34;83.69;98950.09;5098341;28;20028;-78
2022/04/06 03:39:58;;;;;;;7.88;2.15;;;;;;;8.35;83.00;98947.19;5094400;28;19914;-78
2022/04/06 03:42:24;;;;;;;8.63;2.33;;;;;;;8.31;83.09;98945.16;5093801;28;20101;-78
2022/04/06 03:44:50;;;;;;;4.32;2.00;;;;;;;8.33;82.44;98938.53;5094386;28;20063;-78
2022/04/06 03:47:16;;;;;;;10.25;2.60;;;;;;;8.33;82.54;98948.47;5094252;28;20032;-80
2022/04/06 03:49:41;;;;;;;7.10;2.58;;;;;;;8.28;82.92;98940.22;5094891;28;20061;-81
2022/04/06 03:52:07;;;;;;;8.10;1.92;;;;;;;8.20;83.21;98943.25;5095315;28;20028;-81
2022/04/06 03:54:32;;;;;;;5.38;2.05;;;;;;;8.29;82.69;98942.69;5094710;28;20051;-80
2022/04/06 03:56:58;;;;;;;8.85;3.30;;;;;;;8.18;83.23;98940.78;5095101;28;20028;-80
2022/04/06 03:59:23;;;;;;;8.63;2.72;;;;;;;8.25;82.68;98936.13;5095314;28;20036;-78
2022/04/06 04:01:48;;;;;;;5.88;2.58;;;;;;;8.25;83.08;98941.50;5093709;28;20028;-78
2022/04/06 04:04:14;;;;;;;5.13;2.28;;;;;;;8.28;82.45;98935.69;5094163;28;20035;-78
2022/04/06 04:06:40;;;;;;;4.55;2.30;;;;;;;8.19;82.60;98936.22;5094115;28;20040;-78
2022/04/06 04:09:05;;;;;;;8.80;2.10;;;;;;;8.21;82.64;98934.97;5093748;28;20359;-78
2022/04/06 04:11:31;;;;;;;9.65;3.22;;;;;;;8.30;82.08;98933.59;5093802;28;20028;-78
2022/04/06 04:13:57;;;;;;;11.73;2.60;;;;;;;8.21;82.18;98940.31;5093251;28;20040;-78
2022/04/06 04:16:23;;;;;;;5.43;2.17;;;;;;;8.11;83.07;98939.19;5093800;28;20107;-77
2022/04/06 04:18:49;;;;;;;7.22;2.47;;;;;;;8.23;82.33;98937.41;5093592;28;20467;-78
2022/04/06 04:21:32;;;;;;;8.65;2.03;;;;;;;8.28;81.92;98934.84;5093800;28;20028;-78
2022/04/06 04:24:01;;;;;;;9.25;2.50;;;;;;;8.23;81.86;98921.31;5093957;28;20032;-78
2022/04/06 04:26:27;;;;;;;5.68;2.20;;;;;;;8.23;81.33;98927.50;5093667;28;20040;-79
2022/04/06 04:28:53;;;;;;;9.00;3.03;;;;;;;8.25;81.42;98921.88;5094467;28;20044;-79
2022/04/06 04:31:19;;;;;;;4.97;2.05;;;;;;;8.27;81.23;98927.84;5095253;28;20039;-78
2022/04/06 04:33:44;;;;;;;5.00;1.92;;;;;;;8.20;81.49;98913.72;5095186;28;20032;-78
2022/04/06 04:36:09;;;;;;;6.45;2.58;;;;;;;8.22;80.81;98920.50;5094384;28;20067;-80
2022/04/06 04:38:36;;;;;;;9.68;2.20;;;;;;;8.10;81.21;98916.09;5095617;28;20031;-78
2022/04/06 04:41:03;;;;;;;9.07;2.22;;;;;;;8.15;81.62;98916.25;5102605;28;20487;-79
2022/04/06 04:43:28;;;;;;;6.68;2.15;;;;;;;8.16;80.95;98915.22;5102965;28;20032;-80
2022/04/06 04:45:54;;;;;;;5.75;2.35;;;;;;;8.09;81.23;98915.28;5103885;28;20060;-80
2022/04/06 04:48:19;;;;;;;7.95;2.53;;;;;;;8.00;81.34;98919.34;5101885;28;20513;-79
2022/04/06 04:50:45;;;;;;;5.47;2.05;;;;;;;8.02;81.36;98922.63;5098004;28;20482;-79
2022/04/06 04:53:10;;;;;;;5.07;1.75;;;;;;;8.04;81.03;98917.84;5098104;28;20028;-79
2022/04/06 04:55:35;;;;;;;5.73;1.60;;;;;;;8.07;80.61;98912.00;5079800;28;20028;-78
2022/04/06 04:58:01;;;;;;;5.28;1.67;;;;;;;8.05;80.50;98907.94;5097128;28;20586;-80
2022/04/06 05:00:26;;;;;;;6.55;1.30;;;;;;;8.00;80.77;98901.38;5097606;28;20047;-79
2022/04/06 05:02:52;;;;;;;5.10;1.85;;;;;;;8.06;80.46;98898.84;5097165;28;20032;-78
2022/04/06 05:05:17;;;;;;;4.93;1.33;;;;;;;8.11;80.39;98907.84;5097629;28;20044;-79
2022/04/06 05:07:43;;;;;;;5.18;1.95;;;;;;;7.98;80.63;98910.69;5097632;28;20518;-78
2022/04/06 05:10:09;;;;;;;6.05;1.70;;;;;;;8.03;80.27;98897.44;5097200;28;20032;-78
2022/04/06 05:12:35;;;;;;;3.78;1.60;;;;;;;8.12;79.63;98905.97;5097299;28;20114;-78
2022/04/06 05:15:01;;;;;;;3.80;1.17;;;;;;;8.13;79.60;98908.44;5097593;28;20133;-79
2022/04/06 05:17:27;;;;;;;6.53;1.75;;;;;;;8.10;79.58;98910.75;5079244;28;20036;-79
2022/04/06 05:19:53;;;;;;;3.80;1.50;;;;;;;8.13;78.84;98911.13;5098184;28;20044;-80
2022/04/06 05:22:19;;;;;;;7.90;1.70;;;;;;;8.09;79.37;98909.91;5098774;28;20031;-80
2022/04/06 05:24:45;;;;;;;6.88;2.78;;;;;;;8.15;79.29;98909.03;5098830;28;20457;-81
2022/04/06 05:27:10;;;;;;;4.70;1.52;;;;;;;8.20;78.67;98908.34;5080338;28;20020;-81
2022/04/06 05:29:36;;;;;;;10.45;2.03;;;;;;;8.26;78.06;98908.25;5098277;28;20319;-81
2022/04/06 05:32:02;;;;;;;4.40;1.50;;;;;;;8.28;78.05;98905.34;5097586;28;20378;-79
2022/04/06 05:34:28;;;;;;;5.95;1.80;;;;;;;8.27;77.57;98906.38;5078466;28;20111;-79
2022/04/06 05:36:53;;;;;;;8.40;1.73;;;;;;;8.33;77.41;98905.53;5097151;28;20367;-79
2022/04/06 05:39:18;;;;;;;6.00;2.40;;;;;;;8.32;77.33;98901.19;5097058;28;20028;-79
2022/04/06 05:41:44;;;;;;;6.65;1.52;;;;;;;8.33;77.29;98911.72;5098249;28;20035;-78
2022/04/06 05:44:09;;;;;;;3.63;1.50;;;;;;;8.38;77.10;98908.34;5096264;28;20050;-78
2022/04/06 05:46:34;;;;;;;6.27;1.63;;;;;;;8.38;77.19;98915.59;5096503;28;20258;-79
2022/04/06 05:49:00;;;;;;;5.60;1.45;;;;;;;8.35;76.43;98906.94;5096681;28;20032;-78
2022/04/06 05:51:26;;;;;;;8.18;1.52;;;;;;;8.34;76.90;98910.66;5095632;28;20447;-78
2022/04/06 05:53:51;;;;;;;4.75;1.58;;;;;;;8.31;77.31;98905.72;5096753;28;20036;-78
2022/04/06 05:56:16;;;;;;;3.47;1.75;;;;;;;8.35;76.85;98909.63;5099413;28;20031;-78
2022/04/06 05:58:43;;;;;;;4.85;2.10;;;;;;;8.29;77.61;98912.34;5080195;28;20100;-79
2022/04/06 06:01:08;;;;;;;5.65;1.95;;;;;;;8.35;77.67;98914.16;5096547;28;20035;-78
2022/04/06 06:03:34;;;;;;;4.95;1.33;;;;;;;8.33;77.74;98913.56;5097152;28;20103;-78
2022/04/06 06:06:00;;;;;;;6.13;2.13;;;;;;;8.33;77.90;98892.09;5099741;28;20032;-78
2022/04/06 06:08:25;;;;;;;6.95;1.85;;;;;;;8.32;78.79;98907.38;5081648;28;20332;-78
2022/04/06 06:10:50;;;;;;;5.07;2.00;;;;;;;8.34;78.91;98902.63;5099242;28;20439;-78
2022/04/06 06:13:16;;;;;;;6.88;1.92;;;;;;;8.26;79.34;98905.56;5099183;28;20035;-79
2022/04/06 06:15:41;;;;;;;5.93;2.58;;;;;;;8.32;79.24;98896.66;5082419;28;20032;-78
2022/04/06 06:18:08;;;;;;;9.90;2.10;;;;;;;8.36;79.39;98897.03;5099972;28;20043;-79
2022/04/06 06:20:34;;;;;;;9.20;2.22;;;;;;;8.39;78.51;98891.19;5098537;28;20374;-79
2022/04/06 06:22:59;;;;;;;6.18;2.28;;;;;;;8.39;78.69;98896.56;5095716;28;20036;-80
2022/04/06 06:25:24;;;;;;;5.93;2.20;;;;;;;8.38;79.33;98899.47;5097086;28;20048;-79
2022/04/06 06:27:50;;;;;;;4.90;1.88;;;;;;;8.47;78.67;98888.19;5095401;28;20032;-78
2022/04/06 06:30:15;;;;;;;6.05;2.08;;;;;;;8.48;78.26;98879.09;5094760;28;20052;-79
2022/04/06 06:32:41;;;;;;;9.00;2.60;;;;;;;8.48;78.34;98894.38;5095045;28;20042;-79
2022/04/06 06:35:08;;;;;;;5.22;1.90;;;;;;;8.56;77.89;98905.63;5076588;28;20378;-79
2022/04/06 06:37:34;;;;;;;6.07;2.20;;;;;;;8.48;78.05;98895.19;5094555;28;20028;-79
2022/04/06 06:39:59;;;;;;;5.90;1.60;;;;;;;8.52;77.99;98880.25;5095063;28;20119;-78
2022/04/06 06:42:25;;;;;;;5.70;1.58;;;;;;;8.57;78.32;98887.63;5094794;28;20107;-80
2022/04/06 06:44:51;;;;;;;7.43;1.60;;;;;;;8.55;77.49;98885.19;5094558;28;20140;-78
2022/04/06 06:47:16;;;;;;;5.32;1.83;;;;;;;8.51;77.29;98873.25;5075911;28;20480;-78
2022/04/06 06:49:46;;;;;;;5.80;1.75;;;;;;;8.44;77.25;98880.56;5094635;28;20024;-79
2022/04/06 06:52:12;;;;;;;6.55;1.58;;;;;;;8.49;77.21;98866.47;5076272;28;20143;-79
2022/04/06 06:54:39;;;;;;;6.00;1.60;;;;;;;8.51;77.01;98873.25;5095026;28;20074;-79
2022/04/06 06:57:04;;;;;;;4.97;1.73;;;;;;;8.47;77.43;98868.56;5095028;28;20039;-78
2022/04/06 06:59:30;;;;;;;7.80;2.08;;;;;;;8.49;77.66;98882.59;5094546;28;20498;-78
2022/04/06 07:01:55;;;;;;;5.13;1.10;;;;;;;8.50;77.67;98858.19;5094679;28;20039;-80
2022/04/06 07:04:22;;;;;;;7.63;1.63;;;;;;;8.47;78.02;98873.94;5095922;28;20262;-78
2022/04/06 07:06:49;;;;;;;3.67;1.63;;;;;;;8.41;78.39;98874.88;5094230;28;20035;-78
2022/04/06 07:09:15;;;;;;;6.50;1.70;;;;;;;8.43;78.51;98864.69;5094714;28;20024;-78
2022/04/06 07:11:40;;;;;;;5.47;1.40;;;;;;;8.40;78.63;98874.06;5076431;28;20120;-79
2022/04/06 07:14:06;;;;;;;5.68;1.35;;;;;;;8.36;78.82;98878.22;5094102;28;20036;-78
2022/04/06 07:16:31;;;;;;;4.83;1.57;;;;;;;8.37;79.25;98868.31;5093967;28;20024;-78
2022/04/06 07:18:56;;;;;;;5.03;1.67;;;;;;;8.21;79.83;98861.69;5094524;28;20370;-77
2022/04/06 07:21:22;;;;;;;5.33;1.70;;;;;;;8.28;80.02;98863.22;5094533;28;20105;-79
2022/04/06 07:23:47;;;;;;;3.80;1.43;;;;;;;8.12;80.59;98882.66;5095178;28;20246;-79
2022/04/06 07:26:16;;;;;;;4.28;1.50;;;;;;;8.12;81.01;98863.88;5094604;28;20035;-79
2022/04/06 07:28:42;;;;;;;7.50;2.13;;;;;;;8.11;81.20;98866.78;5094687;28;20068;-78
2022/04/06 07:31:08;;;;;;;4.53;1.80;;;;;;;8.15;81.67;98870.66;5094635;28;20047;-79
2022/04/06 07:33:36;;;;;;;3.50;1.50;;;;;;;8.09;81.87;98874.22;5093558;28;20123;-80
2022/04/06 07:36:07;;;;;;;7.22;1.85;;;;;;;8.13;81.07;98862.00;5093470;28;20064;-79
2022/04/06 07:38:33;;;;;;;4.30;1.67;;;;;;;8.21;81.07;98856.34;5095567;28;20035;-80
2022/04/06 07:40:58;;;;;;;4.82;1.60;;;;;;;8.22;80.75;98849.91;5093289;28;20196;-78
2022/04/06 07:43:24;;;;;;;4.35;1.63;;;;;;;8.33;80.22;98851.84;5094453;28;20134;-80
2022/04/06 07:45:50;;;;;;;;;;;;;;;8.32;79.52;98844.84;5094120;28;20458;-78
2022/04/06 07:48:15;;;;;;;7.60;2.03;;;;;;;8.46;79.38;98845.47;5094189;28;19908;-78
2022/04/06 07:50:41;;;;;;;3.30;1.40;;;;;;;8.50;79.27;98839.41;5093941;28;20021;-80
2022/04/06 07:53:06;;;;;;;7.03;1.70;;;;;;;8.45;79.00;98841.13;5094402;28;20066;-78
2022/04/06 07:55:34;;;;;;;5.43;2.00;;;;;;;8.49;79.21;98845.00;5094413;28;20032;-78
2022/04/06 07:58:02;;;;;;;6.85;1.83;;;;;;;8.60;78.63;98842.34;5092978;28;20031;-76
2022/04/06 08:00:33;;;;;;;7.25;2.10;;;;;;;8.56;78.68;98843.88;5092850;28;20036;-77
2022/04/06 08:02:59;;;;;;;6.72;1.33;;;;;;;8.58;78.31;98843.63;5092998;28;20031;-76
2022/04/06 08:05:27;;;;;;;5.68;2.05;;;;;;;8.66;77.80;98836.06;5093269;28;20374;-77
2022/04/06 08:07:54;;;;;;;5.25;1.80;;;;;;;8.59;78.28;98837.22;5093378;28;20028;-77
2022/04/06 08:10:20;;;;;;;8.32;1.90;;;;;;;8.60;77.77;98845.03;5091058;28;20443;-78
2022/04/06 08:12:47;;;;;;;5.75;1.65;;;;;;;8.66;77.42;98836.06;5093154;28;20347;-78
2022/04/06 08:15:14;;;;;;;3.88;1.83;;;;;;;8.61;78.20;98835.91;5095097;28;20035;-78
2022/04/06 08:17:44;;;;;;;3.85;1.80;;;;;;;8.53;78.43;98833.59;5097140;28;20095;-76
2022/04/06 08:20:12;;;;;;;4.90;1.83;;;;;;;8.54;78.49;98829.03;5096413;28;20415;-77
2022/04/06 08:22:38;;;;;;;4.30;1.40;;;;;;;8.46;78.59;98837.41;5097047;28;20375;-78
2022/04/06 08:25:05;;;;;;;4.85;1.73;;;;;;;8.47;78.87;98834.50;5096870;28;20470;-77
2022/04/06 08:27:39;;;;;;;3.83;1.60;;;;;;;8.32;79.16;98845.66;5096529;28;20024;-78
2022/04/06 08:30:05;;;;;;;7.38;1.83;;;;;;;8.36;78.65;98846.03;5095174;28;20085;-77
2022/04/06 08:32:31;;;;;;;5.53;2.22;;;;;;;8.33;78.30;98833.88;5097119;28;20044;-78
2022/04/06 08:34:57;;;;;;;4.85;1.75;;;;;;;8.38;78.29;98841.25;5096658;28;20086;-78
2022/04/06 08:37:22;;;;;;;4.60;1.60;;;;;;;8.30;77.84;98841.53;5095468;28;20136;-78
2022/04/06 08:39:47;;;;;;;5.80;1.50;;;;;;;8.29;77.97;98834.53;5098121;28;20308;-78
2022/04/06 08:42:14;;;;;;;3.72;1.55;;;;;;;8.41;77.96;98832.75;5099478;28;20093;-76
2022/04/06 08:44:39;;;;;;;5.90;2.22;;;;;;;8.45;77.43;98844.63;5096566;28;20047;-76
2022/04/06 08:47:06;;;;;;;4.82;1.85;;;;;;;8.42;77.49;98830.88;5096519;28;20028;-77
2022/04/06 08:49:34;;;;;;;3.78;1.55;;;;;;;8.48;76.78;98827.25;5096298;28;20036;-77
2022/04/06 08:52:00;;;;;;;6.47;1.50;;;;;;;8.55;76.14;98826.13;5096623;28;20480;-77
2022/04/06 08:54:26;;;;;;;3.05;1.20;;;;;;;8.59;75.69;98821.94;5096353;28;20059;-77
2022/04/06 08:56:51;;;;;;;5.90;1.98;;;;;;;8.59;75.11;98819.25;5096180;28;20043;-77
2022/04/06 08:59:17;;;;;;;7.23;1.57;;;;;;;8.61;74.79;98803.69;5096199;28;20028;-77
2022/04/06 09:01:42;;;;;;;4.13;1.83;;;;;;;8.70;74.36;98810.38;5096320;28;20324;-76
2022/04/06 09:04:07;;;;;;;3.80;1.40;;;;;;;8.81;73.94;98814.13;5097596;28;20090;-78
2022/04/06 09:06:44;;;;;;;5.07;1.17;;;;;;;8.93;73.71;98825.69;5097321;28;20050;-77
2022/04/06 09:09:10;;;;;;;11.77;1.38;;;;;;;8.98;72.54;98809.69;5096494;28;20258;-77
2022/04/06 09:11:42;;;;;;;;;;;;;;;8.96;72.95;98819.84;5096600;28;20060;-77
2022/04/06 09:14:08;;;;;;;5.07;1.67;;;;;;;9.12;71.57;98812.16;5096396;28;19912;-77
2022/04/06 09:16:33;;;;;;;6.35;1.67;;;;;;;9.16;71.10;98814.13;5096759;28;20107;-78
2022/04/06 09:19:10;;;;;;;3.47;1.23;;;;;;;9.31;70.95;98817.16;5097558;28;20123;-78
2022/04/06 09:21:42;;;;;;;;;;;;;;;9.34;70.20;98816.66;5097461;28;20258;-76
2022/04/06 09:24:18;;;;;;;5.57;1.00;;;;;;;9.30;69.69;98799.41;5096310;28;19912;-78
2022/04/06 09:26:43;;;;;;;2.47;1.02;;;;;;;9.32;69.23;98818.75;5077193;28;20052;-77
2022/04/06 09:29:15;;;;;;;3.58;1.45;;;;;;;9.34;68.92;98795.16;5078074;28;20055;-77
2022/04/06 09:31:41;;;;;;;2.92;1.00;;;;;;;9.28;68.92;98806.06;5096912;28;20459;-79
2022/04/06 09:34:10;;;;;;;3.13;0.90;;;;;;;9.45;68.59;98806.97;5095839;28;20027;-78
2022/04/06 09:36:38;;;;;;;2.90;1.05;;;;;;;9.51;68.68;98810.56;5095697;28;20458;-77
2022/04/06 09:39:05;;;;;;;2.83;0.90;;;;;;;9.39;68.86;98814.09;5094976;28;20419;-77
2022/04/06 09:41:30;;;;;;;3.10;0.95;;;;;;;9.36;68.26;98797.63;5095231;28;20056;-77
2022/04/06 09:44:07;;;;;;;6.43;1.33;;;;;;;9.30;68.59;98799.41;5095547;28;20070;-77
2022/04/06 09:49:20;;;;;;;3.55;0.98;;;;;;;9.26;69.01;98811.66;5098701;28;20112;-78
2022/04/06 09:51:50;;;;;;;3.55;0.98;;;;;;;9.27;69.51;98807.94;5104804;28;20032;-78
2022/04/06 09:54:16;;;;;;;2.70;1.05;;;;;;;9.26;69.37;98813.53;5101344;28;20449;-78
2022/04/06 09:56:43;;;;;;;2.90;0.80;;;;;;;9.24;69.53;98802.19;5098654;28;20063;-79
2022/04/06 09:59:09;;;;;;;1.90;1.02;;;;;;;9.27;69.30;98813.31;5097174;28;20052;-77
2022/04/06 10:01:43;;;;;;;3.28;0.80;;;;;;;9.32;69.08;98813.38;5079193;28;20485;-79
2022/04/06 10:04:11;;;;;;;2.90;0.98;;;;;;;9.29;69.41;98808.50;5098074;28;20043;-77
2022/04/06 10:06:38;;;;;;;1.77;0.60;;;;;;;9.30;69.14;98803.97;5098818;28;20058;-78
2022/04/06 10:09:07;;;;;;;3.67;0.80;;;;;;;9.26;68.41;98808.16;5099249;28;20069;-77
2022/04/06 10:11:37;;;;;;;2.67;1.20;;;;;;;9.24;68.98;98808.38;5099387;28;20105;-78
2022/04/06 10:14:04;;;;;;;1.80;0.90;;;;;;;9.33;68.68;98803.47;5099976;28;20445;-77
2022/04/06 10:16:30;;;;;;;2.63;0.95;;;;;;;9.35;68.71;98791.41;5098841;28;20043;-77
2022/04/06 10:18:57;;;;;;;4.53;1.30;;;;;;;9.34;68.46;98805.09;5100165;28;20031;-77
2022/04/06 10:21:53;;;;;;;5.78;0.70;;;;;;;9.29;68.51;98802.31;5100244;28;20040;-78
2022/04/06 10:24:55;;;;;;;4.95;0.88;;;;;;;9.40;68.51;98794.22;5099173;28;20020;-78
2022/04/06 10:27:28;;;;;;;2.55;1.02;;;;;;;9.41;68.36;98789.66;5080633;28;20035;-77
2022/04/06 10:30:29;;;;;;;2.58;0.90;;;;;;;9.48;68.67;98792.22;5098324;28;20044;-78
2022/04/06 10:32:58;;;;;;;10.80;3.33;;;;;;;9.52;68.17;98788.00;4994404;28;20540;-80
2022/04/06 10:35:31;;;;;;;2.47;0.70;;;;;;;9.56;68.27;98792.66;5080416;28;20436;-77
2022/04/06 10:37:57;;;;;;;3.33;1.10;;;;;;;9.63;68.51;98781.78;5095552;28;20425;-77
2022/04/06 10:40:23;;;;;;;;;;;;;;;9.70;69.01;98780.56;5095912;28;20052;-77
2022/04/06 10:42:49;;;;;;;2.67;0.90;;;;;;;9.61;68.91;98786.59;5095850;28;19931;-77
2022/04/06 10:45:41;;;;;;;3.03;1.00;;;;;;;9.54;69.45;98777.81;5094906;28;20032;-76
2022/04/06 10:48:14;;;;;;;6.20;1.30;;;;;;;9.50;69.71;98760.53;5091690;28;20047;-76
2022/04/06 10:50:41;;;;;;;1.67;0.88;;;;;;;9.49;69.38;98761.59;5094705;28;20032;-77
2022/04/06 10:53:19;;;;;;;3.33;1.20;;;;;;;9.38;69.97;98780.19;5094499;28;20147;-77
2022/04/06 10:55:56;;;;;;;3.63;1.05;;;;;;;9.43;69.94;98778.69;5094051;28;20044;-77
2022/04/06 10:58:23;;;;;;;4.07;0.85;;;;;;;9.53;69.94;98770.81;5094802;28;20046;-77
2022/04/06 11:01:18;;;;;;;4.63;1.33;;;;;;;9.54;69.63;98777.81;5095051;28;20545;-78
2022/04/06 11:04:06;;;;;;;2.95;0.95;;;;;;;9.67;69.86;98777.56;5094361;28;20027;-77
2022/04/06 11:06:40;;;;;;;5.47;0.90;;;;;;;9.63;69.52;98779.09;5094551;28;20035;-78
2022/04/06 11:12:29;;;;;;;2.33;1.00;;;;;;;9.62;70.18;98775.59;5093779;28;20216;-78
2022/04/06 11:14:58;;;;;;;2.42;1.10;;;;;;;9.56;70.35;98773.03;5081493;28;20433;-78
2022/04/06 11:17:32;;;;;;;3.03;1.00;;;;;;;9.49;71.33;98777.75;5093473;28;20032;-77
2022/04/06 11:20:04;;;;;;;3.60;0.90;;;;;;;9.35;72.13;98764.53;5094714;28;20024;-77
2022/04/06 11:22:29;;;;;;;2.88;1.20;;;;;;;9.40;71.95;98778.09;5094389;28;20031;-79
2022/04/06 11:24:55;;;;;;;2.97;1.40;;;;;;;9.51;71.98;98764.84;5093245;28;20467;-79
2022/04/06 11:27:28;;;;;;;;;;;;;;;9.53;72.36;98763.56;5094820;28;20467;-79
2022/04/06 11:30:14;;;;;;;2.15;0.90;;;;;;;9.52;71.62;98758.41;5076142;28;19916;-77
2022/04/06 11:32:56;;;;;;;4.18;1.13;;;;;;;9.57;72.05;98764.72;5076577;28;20032;-79
2022/04/06 11:35:34;;;;;;;5.32;1.60;;;;;;;9.49;72.24;98770.50;5094406;28;20127;-79
2022/04/06 11:37:59;;;;;;;3.13;1.00;;;;;;;9.38;73.03;98761.38;5097531;28;20055;-80
2022/04/06 11:40:27;;;;;;;2.75;0.85;;;;;;;9.22;74.34;98770.19;5098551;28;20085;-79
2022/04/06 11:42:57;;;;;;;3.50;1.23;;;;;;;9.21;74.60;98756.97;5097280;28;20130;-80
2022/04/06 11:45:40;;;;;;;3.00;1.10;;;;;;;9.23;74.63;98762.94;5077657;28;20103;-78
2022/04/06 11:48:07;;;;;;;2.60;1.00;;;;;;;9.30;75.53;98772.53;5078669;28;20368;-78
2022/04/06 11:50:35;;;;;;;6.82;1.45;;;;;;;9.22;75.61;98758.63;5096673;28;20028;-79